Time;durP1;ratioP1;P1;durP2;ratioP2;P2;SDS_P1;SDS_P2;PMS_P1;PMS_P2;Temp;Humidity;BMP_temperature;BMP_pressure;BME280_temperature;BME280_humidity;BME280_pressure;Samples;Min_cycle;Max_cycle;Signal;HPM_P1;HPM_P2
2023/04/17 00:00:39;;;;;;;27.63;16.35;;;9.00;99.90;;;;;;5037941;28;20464;-76
2023/04/17 00:03:04;;;;;;;29.30;16.48;;;9.00;99.90;;;;;;5054221;28;20060;-76
2023/04/17 00:05:32;;;;;;;28.58;17.20;;;9.00;99.90;;;;;;5053589;28;20080;-77
2023/04/17 00:07:58;;;;;;;28.30;16.48;;;9.00;99.90;;;;;;5054428;28;20049;-78
2023/04/17 00:10:24;;;;;;;29.30;16.42;;;9.10;99.90;;;;;;5055563;28;20059;-77
2023/04/17 00:12:50;;;;;;;30.58;17.10;;;9.00;99.90;;;;;;5055111;28;20057;-77
2023/04/17 00:15:16;;;;;;;30.77;16.48;;;9.10;99.90;;;;;;5054368;28;20525;-78
2023/04/17 00:17:41;;;;;;;30.15;17.33;;;9.10;99.90;;;;;;5054978;28;20068;-76
2023/04/17 00:20:11;;;;;;;29.38;16.65;;;9.10;99.90;;;;;;5054889;28;20136;-77
2023/04/17 00:22:37;;;;;;;30.08;16.95;;;9.10;99.90;;;;;;5054872;28;20048;-77
2023/04/17 00:25:03;;;;;;;32.80;17.65;;;9.00;99.90;;;;;;5055521;28;20052;-76
2023/04/17 00:27:29;;;;;;;31.42;17.08;;;9.10;99.90;;;;;;5053825;28;20488;-76
2023/04/17 00:29:55;;;;;;;30.88;16.60;;;9.00;99.90;;;;;;5054718;28;20040;-77
2023/04/17 00:32:20;;;;;;;31.83;16.73;;;9.00;99.90;;;;;;5053664;28;20041;-77
2023/04/17 00:34:46;;;;;;;32.67;18.40;;;9.00;99.90;;;;;;5054532;28;20044;-77
2023/04/17 00:37:12;;;;;;;34.08;17.33;;;9.00;99.90;;;;;;5054496;28;20473;-76
2023/04/17 00:39:37;;;;;;;32.13;17.05;;;9.00;99.90;;;;;;5054582;28;20107;-76
2023/04/17 00:42:03;;;;;;;32.55;17.80;;;9.00;99.90;;;;;;5052924;28;20080;-77
2023/04/17 00:44:29;;;;;;;33.75;18.60;;;9.00;99.90;;;;;;5054974;28;20044;-76
2023/04/17 00:46:55;;;;;;;31.10;16.65;;;9.00;99.90;;;;;;5054406;28;20087;-77
2023/04/17 00:49:22;;;;;;;31.27;17.48;;;9.00;99.90;;;;;;5054340;28;20076;-76
2023/04/17 00:51:49;;;;;;;28.75;16.70;;;9.00;99.90;;;;;;5053091;28;20060;-76
2023/04/17 00:54:15;;;;;;;31.98;17.50;;;9.00;99.90;;;;;;5053807;28;20091;-77
2023/04/17 00:56:42;;;;;;;33.80;18.30;;;9.00;99.90;;;;;;5054235;28;20056;-77
2023/04/17 00:59:11;;;;;;;33.08;18.13;;;9.00;99.90;;;;;;5054115;28;20045;-77
2023/04/17 01:01:37;;;;;;;33.30;16.80;;;9.00;99.90;;;;;;5054172;28;20049;-77
2023/04/17 01:04:06;;;;;;;35.28;18.00;;;9.00;99.90;;;;;;5053778;28;20048;-76
2023/04/17 01:06:31;;;;;;;34.08;16.90;;;9.00;99.90;;;;;;5054517;28;20049;-76
2023/04/17 01:08:58;;;;;;;30.50;17.10;;;9.00;99.90;;;;;;5036181;28;20060;-76
2023/04/17 01:11:24;;;;;;;29.98;16.55;;;9.00;99.90;;;;;;5053469;28;20528;-76
2023/04/17 01:13:50;;;;;;;30.73;17.45;;;8.90;99.90;;;;;;5053341;28;20049;-77
2023/04/17 01:16:16;;;;;;;33.00;17.63;;;9.00;99.90;;;;;;5054146;28;20037;-78
2023/04/17 01:18:42;;;;;;;29.52;16.48;;;8.90;99.90;;;;;;5053858;28;20055;-77
2023/04/17 01:21:08;;;;;;;32.58;16.92;;;8.90;99.90;;;;;;5053835;28;20357;-77
2023/04/17 01:23:50;;;;;;;30.42;17.33;;;8.90;99.90;;;;;;5053720;28;20049;-78
2023/04/17 01:26:21;;;;;;;29.73;16.13;;;8.90;99.90;;;;;;5053786;28;20052;-77
2023/04/17 01:28:58;;;;;;;30.67;15.55;;;8.80;99.90;;;;;;5053092;28;20072;-76
2023/04/17 01:31:26;;;;;;;32.15;17.08;;;8.90;99.90;;;;;;5054020;28;20041;-77
2023/04/17 01:33:52;;;;;;;36.22;18.25;;;8.90;99.90;;;;;;5052451;28;20063;-77
2023/04/17 01:36:18;;;;;;;27.75;15.68;;;8.90;99.90;;;;;;5054099;28;20044;-78
2023/04/17 01:38:44;;;;;;;31.88;16.75;;;8.90;99.90;;;;;;5054362;28;20088;-77
2023/04/17 01:41:10;;;;;;;27.27;15.82;;;8.90;99.90;;;;;;5053391;28;20045;-77
2023/04/17 01:43:44;;;;;;;28.60;15.38;;;8.90;99.90;;;;;;5053472;28;20041;-76
2023/04/17 01:46:10;;;;;;;28.08;16.23;;;8.90;99.90;;;;;;5053994;28;20120;-76
2023/04/17 01:48:36;;;;;;;30.33;15.52;;;8.90;99.90;;;;;;5053440;28;20074;-79
2023/04/17 01:51:03;;;;;;;25.30;15.30;;;8.90;99.90;;;;;;5053397;28;20055;-78
2023/04/17 01:53:30;;;;;;;26.00;16.13;;;8.90;99.90;;;;;;5052965;28;20037;-76
2023/04/17 01:55:56;;;;;;;26.13;15.90;;;8.90;99.90;;;;;;5053624;28;20041;-76
2023/04/17 01:58:22;;;;;;;30.33;16.40;;;8.90;99.90;;;;;;5053986;28;20332;-77
2023/04/17 02:00:48;;;;;;;26.50;15.00;;;8.90;99.90;;;;;;5053286;28;20155;-76
2023/04/17 02:03:15;;;;;;;29.60;16.20;;;8.90;99.90;;;;;;5053299;28;20048;-76
2023/04/17 02:05:44;;;;;;;29.17;15.65;;;8.90;99.90;;;;;;5052315;28;20059;-77
2023/04/17 02:08:10;;;;;;;27.63;15.18;;;8.90;99.90;;;;;;5053176;28;20055;-76
2023/04/17 02:10:35;;;;;;;29.38;16.35;;;8.90;99.90;;;;;;5052125;28;20045;-76
2023/04/17 02:13:01;;;;;;;27.38;16.42;;;8.90;99.90;;;;;;5053345;28;20465;-77
2023/04/17 02:15:27;;;;;;;25.38;13.80;;;8.90;99.90;;;;;;5053042;28;20484;-76
2023/04/17 02:17:52;;;;;;;26.80;15.02;;;8.80;99.90;;;;;;5052604;28;20045;-76
2023/04/17 02:20:18;;;;;;;27.20;15.93;;;8.80;99.90;;;;;;5053368;28;20084;-76
2023/04/17 02:22:44;;;;;;;29.95;15.88;;;8.90;99.90;;;;;;5051826;28;20482;-77
2023/04/17 02:25:10;;;;;;;25.60;14.75;;;8.80;99.90;;;;;;5053042;28;20045;-76
2023/04/17 02:27:35;;;;;;;26.48;15.85;;;8.90;99.90;;;;;;5052244;28;20055;-77
2023/04/17 02:30:02;;;;;;;26.73;15.23;;;8.90;99.90;;;;;;5052964;28;20095;-76
2023/04/17 02:32:28;;;;;;;29.17;16.40;;;8.90;99.90;;;;;;5052835;28;20053;-76
2023/04/17 02:34:55;;;;;;;26.85;14.85;;;8.80;99.90;;;;;;5052921;28;20041;-76
2023/04/17 02:37:20;;;;;;;27.15;16.13;;;8.80;99.90;;;;;;5052643;28;20056;-76
2023/04/17 02:39:46;;;;;;;26.10;15.73;;;8.80;99.90;;;;;;5052891;28;20041;-77
2023/04/17 02:42:12;;;;;;;29.38;15.93;;;8.80;99.90;;;;;;5051703;28;20045;-76
2023/04/17 02:44:38;;;;;;;25.65;15.63;;;8.80;99.90;;;;;;5052803;28;20076;-77
2023/04/17 02:47:05;;;;;;;27.40;15.77;;;8.80;99.90;;;;;;5052742;28;20053;-77
2023/04/17 02:49:30;;;;;;;27.55;15.90;;;8.80;99.90;;;;;;5052860;28;20124;-77
2023/04/17 02:51:56;;;;;;;29.48;16.52;;;8.80;99.90;;;;;;5052456;28;20124;-76
2023/04/17 02:54:22;;;;;;;29.80;16.38;;;8.80;99.90;;;;;;5052076;28;20037;-76
2023/04/17 02:56:49;;;;;;;29.38;16.42;;;8.80;99.90;;;;;;5052936;28;20045;-77
2023/04/17 02:59:14;;;;;;;32.88;16.73;;;8.80;99.90;;;;;;5052708;28;20060;-77
2023/04/17 03:01:41;;;;;;;31.38;17.42;;;8.80;99.90;;;;;;5052728;28;20049;-77
2023/04/17 03:04:06;;;;;;;34.10;17.73;;;8.70;99.90;;;;;;5053177;28;20095;-76
2023/04/17 03:06:32;;;;;;;36.33;17.27;;;8.70;99.90;;;;;;5054996;28;20049;-76
2023/04/17 03:08:58;;;;;;;31.88;18.10;;;8.70;99.90;;;;;;5056359;28;20053;-76
2023/04/17 03:11:24;;;;;;;30.35;17.40;;;8.70;99.90;;;;;;5054806;28;20060;-76
2023/04/17 03:13:49;;;;;;;36.58;17.95;;;8.70;99.90;;;;;;5056901;28;20049;-76
2023/04/17 03:16:15;;;;;;;35.55;17.02;;;8.70;99.90;;;;;;5056446;28;20051;-78
2023/04/17 03:18:41;;;;;;;28.85;16.77;;;8.70;99.90;;;;;;5057056;28;20347;-76
2023/04/17 03:21:07;;;;;;;34.58;17.35;;;8.60;99.90;;;;;;5056118;28;20049;-76
2023/04/17 03:23:33;;;;;;;30.17;17.27;;;8.70;99.90;;;;;;5056568;28;20477;-77
2023/04/17 03:26:00;;;;;;;30.30;17.25;;;8.70;99.90;;;;;;5056753;28;20048;-76
2023/04/17 03:28:26;;;;;;;31.38;17.08;;;8.70;99.90;;;;;;5055948;28;20049;-76
2023/04/17 03:30:53;;;;;;;34.40;17.05;;;8.70;99.90;;;;;;5056335;28;20102;-76
2023/04/17 03:33:19;;;;;;;35.10;19.13;;;8.60;99.90;;;;;;5056292;28;20450;-77
2023/04/17 03:35:45;;;;;;;36.05;18.55;;;8.70;99.90;;;;;;5055448;28;20135;-77
2023/04/17 03:38:11;;;;;;;37.53;18.95;;;8.70;99.90;;;;;;5055979;28;20091;-77
2023/04/17 03:40:36;;;;;;;38.92;17.15;;;8.60;99.90;;;;;;5055606;28;20048;-75
2023/04/17 03:43:02;;;;;;;32.67;17.13;;;8.70;99.90;;;;;;5055543;28;20041;-76
2023/04/17 03:45:28;;;;;;;34.00;18.35;;;8.60;99.90;;;;;;5055954;28;20040;-76
2023/04/17 03:47:53;;;;;;;35.10;17.98;;;8.60;99.90;;;;;;5054394;28;20037;-77
2023/04/17 03:50:19;;;;;;;38.00;19.27;;;8.60;99.90;;;;;;5055938;28;20051;-78
2023/04/17 03:52:45;;;;;;;36.22;18.45;;;8.50;99.90;;;;;;5055559;28;20446;-76
2023/04/17 03:55:11;;;;;;;34.83;17.70;;;8.50;99.90;;;;;;5056532;28;20056;-76
2023/04/17 03:57:36;;;;;;;36.50;18.33;;;8.50;99.90;;;;;;5056666;28;20374;-76
2023/04/17 04:00:05;;;;;;;32.97;17.85;;;8.50;99.90;;;;;;5055224;28;20048;-76
2023/04/17 04:02:31;;;;;;;36.53;18.98;;;8.50;99.90;;;;;;5055241;28;20048;-76
2023/04/17 04:04:57;;;;;;;35.65;18.35;;;8.50;99.90;;;;;;5055314;28;20137;-76
2023/04/17 04:07:22;;;;;;;34.42;18.25;;;8.50;99.90;;;;;;5037961;28;20048;-77
2023/04/17 04:09:48;;;;;;;37.35;18.25;;;8.50;99.90;;;;;;5055209;28;20041;-77
2023/04/17 04:12:14;;;;;;;36.88;18.08;;;8.50;99.90;;;;;;5053737;28;20052;-76
2023/04/17 04:14:40;;;;;;;33.92;17.27;;;8.50;99.90;;;;;;5055290;28;20110;-78
2023/04/17 04:17:06;;;;;;;33.25;18.70;;;8.50;99.90;;;;;;5053221;28;20056;-76
2023/04/17 04:19:31;;;;;;;35.28;18.88;;;8.50;99.90;;;;;;5054923;28;20045;-76
2023/04/17 04:21:57;;;;;;;34.78;17.55;;;8.50;99.90;;;;;;5037382;28;20068;-78
2023/04/17 04:24:24;;;;;;;33.20;17.65;;;8.50;99.90;;;;;;5053980;28;20048;-77
2023/04/17 04:26:50;;;;;;;31.80;17.88;;;8.50;99.90;;;;;;5054620;28;20087;-76
2023/04/17 04:29:16;;;;;;;32.50;17.83;;;8.50;99.90;;;;;;5054811;28;20458;-76
2023/04/17 04:31:45;;;;;;;31.73;17.65;;;8.50;99.90;;;;;;5055232;28;20049;-77
2023/04/17 04:34:12;;;;;;;30.33;17.25;;;8.50;99.90;;;;;;5054647;28;20174;-77
2023/04/17 04:36:40;;;;;;;30.55;17.65;;;8.50;99.90;;;;;;5054684;28;20122;-76
2023/04/17 04:39:07;;;;;;;30.02;17.73;;;8.50;99.90;;;;;;5055162;28;20052;-77
2023/04/17 04:41:32;;;;;;;31.17;17.40;;;8.50;99.90;;;;;;5055503;28;20060;-77
2023/04/17 04:44:00;;;;;;;35.20;18.40;;;8.50;99.90;;;;;;5053788;28;20044;-76
2023/04/17 04:46:27;;;;;;;31.35;17.08;;;8.50;99.90;;;;;;5053842;28;20489;-76
2023/04/17 04:48:52;;;;;;;33.53;17.60;;;8.50;99.90;;;;;;5054143;28;20057;-77
2023/04/17 04:51:18;;;;;;;34.60;17.60;;;8.50;99.90;;;;;;5053261;28;20053;-76
2023/04/17 04:53:45;;;;;;;35.47;18.73;;;8.50;99.90;;;;;;5053808;28;20442;-76
2023/04/17 04:56:11;;;;;;;34.40;17.38;;;8.50;99.90;;;;;;5054645;28;20043;-76
2023/04/17 04:58:37;;;;;;;34.78;19.25;;;8.50;99.90;;;;;;5054202;28;20060;-76
2023/04/17 05:01:04;;;;;;;38.28;19.73;;;8.50;99.90;;;;;;5054111;28;20089;-76
2023/04/17 05:03:30;;;;;;;35.75;18.23;;;8.50;99.90;;;;;;5054605;28;20049;-77
2023/04/17 05:05:56;;;;;;;36.47;20.23;;;8.50;99.90;;;;;;5053402;28;20095;-77
2023/04/17 05:08:22;;;;;;;32.15;18.42;;;8.50;99.90;;;;;;5052971;28;20040;-77
2023/04/17 05:10:47;;;;;;;34.75;17.10;;;8.50;99.90;;;;;;5053790;28;20135;-77
2023/04/17 05:13:13;;;;;;;33.22;18.02;;;8.50;99.90;;;;;;5054422;28;20061;-77
2023/04/17 05:15:40;;;;;;;34.05;16.65;;;8.50;99.90;;;;;;5053714;28;20048;-76
2023/04/17 05:18:06;;;;;;;33.67;17.50;;;8.50;99.90;;;;;;5053966;28;20131;-76
2023/04/17 05:20:31;;;;;;;34.35;18.50;;;8.50;99.90;;;;;;5053806;28;20087;-76
2023/04/17 05:22:57;;;;;;;35.60;19.00;;;8.50;99.90;;;;;;5035885;28;20140;-77
2023/04/17 05:25:23;;;;;;;37.40;20.17;;;8.50;99.90;;;;;;5053795;28;20095;-77
2023/04/17 05:27:49;;;;;;;34.58;18.75;;;8.50;99.90;;;;;;5053525;28;20045;-76
2023/04/17 05:30:15;;;;;;;36.40;18.42;;;8.50;99.90;;;;;;5053701;28;20052;-76
2023/04/17 05:32:41;;;;;;;35.42;18.90;;;8.50;99.90;;;;;;5053335;28;20491;-76
2023/04/17 05:35:07;;;;;;;36.47;18.38;;;8.50;99.90;;;;;;5054351;28;20179;-76
2023/04/17 05:37:32;;;;;;;39.60;19.00;;;8.50;99.90;;;;;;5053599;28;20044;-76
2023/04/17 05:40:00;;;;;;;34.17;17.20;;;8.50;99.90;;;;;;5053501;28;20119;-76
2023/04/17 05:42:25;;;;;;;31.23;18.55;;;8.50;99.90;;;;;;5053550;28;20128;-77
2023/04/17 05:44:51;;;;;;;34.00;16.67;;;8.50;99.90;;;;;;5053130;28;20573;-76
2023/04/17 05:47:18;;;;;;;36.58;18.75;;;8.60;99.90;;;;;;5054094;28;20052;-77
2023/04/17 05:49:43;;;;;;;31.65;17.17;;;8.60;99.90;;;;;;5053370;28;20052;-77
2023/04/17 05:52:09;;;;;;;33.40;17.45;;;8.60;99.90;;;;;;5053291;28;20044;-77
2023/04/17 05:54:35;;;;;;;32.40;17.02;;;8.60;99.90;;;;;;5052624;28;20045;-75
2023/04/17 05:57:02;;;;;;;34.60;17.67;;;8.60;99.90;;;;;;5053022;28;20049;-76
2023/04/17 05:59:27;;;;;;;32.00;17.48;;;8.70;99.90;;;;;;5053280;28;20057;-77
2023/04/17 06:01:53;;;;;;;33.63;17.48;;;8.70;99.90;;;;;;5052921;28;20481;-76
2023/04/17 06:04:19;;;;;;;29.83;17.98;;;8.70;99.90;;;;;;5053111;28;20044;-76
2023/04/17 06:06:45;;;;;;;30.30;16.80;;;8.70;99.90;;;;;;5053982;28;20049;-76
2023/04/17 06:09:10;;;;;;;29.92;17.35;;;8.70;99.90;;;;;;5053605;28;20045;-77
2023/04/17 06:11:36;;;;;;;33.78;16.77;;;8.70;99.90;;;;;;5052952;28;20083;-76
2023/04/17 06:14:02;;;;;;;31.13;16.77;;;8.70;99.90;;;;;;5053743;28;20049;-76
2023/04/17 06:16:28;;;;;;;31.05;17.13;;;8.70;99.90;;;;;;5051942;28;20048;-77
2023/04/17 06:18:53;;;;;;;31.85;16.70;;;8.80;99.90;;;;;;5035532;28;20055;-76
2023/04/17 06:21:20;;;;;;;32.38;17.25;;;8.80;99.90;;;;;;5052085;28;20098;-76
2023/04/17 06:23:45;;;;;;;30.35;16.58;;;8.80;99.90;;;;;;5053105;28;20121;-77
2023/04/17 06:26:11;;;;;;;30.15;15.57;;;8.80;99.90;;;;;;5052833;28;20513;-76
2023/04/17 06:28:37;;;;;;;30.73;17.08;;;8.80;99.90;;;;;;5051791;28;20049;-76
2023/04/17 06:31:03;;;;;;;31.58;16.60;;;8.90;99.90;;;;;;5052784;28;20075;-76
2023/04/17 06:33:28;;;;;;;34.67;17.10;;;8.90;99.90;;;;;;5053011;28;20044;-76
2023/04/17 06:35:54;;;;;;;29.98;16.42;;;8.90;99.90;;;;;;5052924;28;20494;-76
2023/04/17 06:38:20;;;;;;;33.53;17.80;;;8.90;99.90;;;;;;5052884;28;20103;-77
2023/04/17 06:40:46;;;;;;;30.67;17.25;;;8.90;99.90;;;;;;5055124;28;20049;-73
2023/04/17 06:43:14;;;;;;;31.90;16.85;;;8.80;99.90;;;;;;5057282;28;20048;-77
2023/04/17 06:45:41;;;;;;;28.75;16.73;;;8.80;99.90;;;;;;5057411;28;20048;-77
2023/04/17 06:48:07;;;;;;;29.52;17.17;;;8.80;99.90;;;;;;5056609;28;20492;-77
2023/04/17 06:50:33;;;;;;;32.95;17.38;;;8.80;99.90;;;;;;5057238;28;20346;-77
2023/04/17 06:52:59;;;;;;;29.10;16.92;;;8.80;99.90;;;;;;5056625;28;20052;-77
2023/04/17 06:55:25;;;;;;;29.45;17.88;;;8.90;99.90;;;;;;5055637;28;20389;-77
2023/04/17 06:57:51;;;;;;;30.33;16.83;;;8.90;99.90;;;;;;5056618;28;20053;-75
2023/04/17 07:00:17;;;;;;;33.38;17.75;;;8.90;99.90;;;;;;5056563;28;20055;-76
2023/04/17 07:02:43;;;;;;;29.77;16.70;;;9.00;99.90;;;;;;5056439;28;20059;-78
2023/04/17 07:05:09;;;;;;;30.60;17.52;;;9.00;99.90;;;;;;5055840;28;20128;-74
2023/04/17 07:07:35;;;;;;;30.60;16.40;;;9.00;99.90;;;;;;5056167;28;20049;-74
2023/04/17 07:10:02;;;;;;;29.10;17.45;;;9.10;99.90;;;;;;5056277;28;20115;-73
2023/04/17 07:12:28;;;;;;;29.00;16.92;;;9.00;99.90;;;;;;5056044;28;20182;-76
2023/04/17 07:14:53;;;;;;;28.02;17.30;;;9.00;99.90;;;;;;5054782;28;20509;-73
2023/04/17 07:17:19;;;;;;;31.75;17.67;;;9.10;99.90;;;;;;5056149;28;20055;-73
2023/04/17 07:19:45;;;;;;;31.17;17.77;;;9.10;99.90;;;;;;5054849;28;20048;-73
2023/04/17 07:22:11;;;;;;;29.67;17.08;;;9.20;99.90;;;;;;5055989;28;20187;-73
2023/04/17 07:24:36;;;;;;;31.63;17.27;;;9.20;99.90;;;;;;5055932;28;20056;-74
2023/04/17 07:27:03;;;;;;;29.98;16.75;;;9.30;99.90;;;;;;5055946;28;20064;-75
2023/04/17 07:29:29;;;;;;;30.70;16.42;;;9.30;99.90;;;;;;5055766;28;20098;-76
2023/04/17 07:31:55;;;;;;;30.38;17.67;;;9.30;99.90;;;;;;5055727;28;20045;-73
2023/04/17 07:34:20;;;;;;;33.58;17.85;;;9.40;99.90;;;;;;5054456;28;20049;-73
2023/04/17 07:36:48;;;;;;;33.08;16.60;;;9.40;99.90;;;;;;5055088;28;20110;-73
2023/04/17 07:39:14;;;;;;;28.40;16.48;;;9.50;99.90;;;;;;5056100;28;20045;-75
2023/04/17 07:41:40;;;;;;;27.65;16.65;;;9.60;99.90;;;;;;5055272;28;20351;-75
2023/04/17 07:44:05;;;;;;;31.33;17.90;;;9.60;99.90;;;;;;5055520;28;20044;-76
2023/04/17 07:46:31;;;;;;;30.05;17.48;;;9.60;99.90;;;;;;5055484;28;20055;-75
2023/04/17 07:48:57;;;;;;;32.30;17.88;;;9.70;99.90;;;;;;5055779;28;20271;-75
2023/04/17 07:51:23;;;;;;;35.10;18.55;;;9.70;99.90;;;;;;5054127;28;20135;-74
2023/04/17 07:53:49;;;;;;;31.73;17.67;;;9.70;99.90;;;;;;5055872;28;20136;-75
2023/04/17 07:56:16;;;;;;;27.90;16.30;;;9.80;99.90;;;;;;5054405;28;20041;-77
2023/04/17 07:58:44;;;;;;;32.08;18.50;;;9.80;99.90;;;;;;5055277;28;20049;-76
2023/04/17 08:01:10;;;;;;;29.63;19.10;;;9.90;99.90;;;;;;5055042;28;20049;-75
2023/04/17 08:03:39;;;;;;;32.97;18.05;;;10.00;99.90;;;;;;5055199;28;20473;-76
2023/04/17 08:06:05;;;;;;;34.15;19.35;;;10.10;99.90;;;;;;5054129;28;20057;-76
2023/04/17 08:08:30;;;;;;;31.35;18.00;;;10.20;99.90;;;;;;5055122;28;20041;-75
2023/04/17 08:10:56;;;;;;;31.55;19.05;;;10.30;99.90;;;;;;5037916;28;20060;-75
2023/04/17 08:13:22;;;;;;;28.20;18.73;;;10.50;99.90;;;;;;5054857;28;20057;-77
2023/04/17 08:15:48;;;;;;;30.65;20.33;;;10.60;99.90;;;;;;5055392;28;20423;-77
2023/04/17 08:18:13;;;;;;;33.50;19.58;;;10.80;99.90;;;;;;5055183;28;20049;-77
2023/04/17 08:20:39;;;;;;;29.00;19.42;;;10.90;99.90;;;;;;5054022;28;20504;-75
2023/04/17 08:23:05;;;;;;;30.30;18.73;;;11.10;99.90;;;;;;5053626;28;20127;-75
2023/04/17 08:25:31;;;;;;;29.42;18.38;;;11.20;99.90;;;;;;5020729;28;20082;-76
2023/04/17 08:27:56;;;;;;;29.40;18.83;;;11.30;99.90;;;;;;5054987;28;20099;-72
2023/04/17 08:30:22;;;;;;;30.10;18.70;;;11.40;99.90;;;;;;5054643;28;20045;-73
2023/04/17 08:32:50;;;;;;;29.25;18.63;;;11.50;99.90;;;;;;5053896;28;20048;-71
2023/04/17 08:35:16;;;;;;;27.80;18.70;;;11.50;99.90;;;;;;5054628;28;20114;-75
2023/04/17 08:37:45;;;;;;;30.45;18.60;;;11.50;99.90;;;;;;5054548;28;20100;-72
2023/04/17 08:40:12;;;;;;;28.33;18.27;;;11.50;99.90;;;;;;5053519;28;20049;-76
2023/04/17 08:42:40;;;;;;;27.17;17.90;;;11.50;99.90;;;;;;5055046;28;20059;-79
2023/04/17 08:45:16;;;;;;;27.52;18.00;;;11.60;99.90;;;;;;5055006;28;20052;-75
2023/04/17 08:47:42;;;;;;;26.05;17.98;;;11.60;99.90;;;;;;5037541;28;20084;-74
2023/04/17 08:50:10;;;;;;;27.15;18.25;;;11.70;99.90;;;;;;5054214;28;20060;-74
2023/04/17 08:52:43;;;;;;;25.90;17.10;;;11.80;99.90;;;;;;5054185;28;20128;-76
2023/04/17 08:55:17;;;;;;;24.88;16.85;;;12.00;99.90;;;;;;5053517;28;20497;-76
2023/04/17 08:58:13;;;;;;;25.67;16.88;;;12.10;99.90;;;;;;5053799;28;20501;-76
2023/04/17 09:00:40;;;;;;;24.58;16.77;;;12.20;99.90;;;;;;5032970;28;20080;-76
2023/04/17 09:03:09;;;;;;;22.95;16.52;;;12.30;99.90;;;;;;5052237;28;20124;-75
2023/04/17 09:05:36;;;;;;;26.60;17.27;;;12.50;99.90;;;;;;5052880;28;20045;-76
2023/04/17 09:08:12;;;;;;;22.83;15.43;;;12.60;99.90;;;;;;5052967;28;20183;-75
2023/04/17 09:10:43;;;;;;;22.50;15.85;;;12.80;99.90;;;;;;5053926;28;20061;-75
2023/04/17 09:13:14;;;;;;;22.25;15.10;;;12.90;99.90;;;;;;5053484;28;20053;-74
2023/04/17 09:15:42;;;;;;;20.65;15.55;;;12.90;99.90;;;;;;5053786;28;20075;-74
2023/04/17 09:18:24;;;;;;;20.55;14.98;;;13.00;99.90;;;;;;5053925;28;20056;-75
2023/04/17 09:20:50;;;;;;;20.17;14.52;;;13.10;99.90;;;;;;5054499;28;20049;-74
2023/04/17 09:23:16;;;;;;;20.00;14.65;;;13.10;99.90;;;;;;5053690;28;20049;-75
2023/04/17 09:25:42;;;;;;;22.00;14.75;;;13.20;99.90;;;;;;5053761;28;20107;-73
2023/04/17 09:28:13;;;;;;;19.02;14.48;;;13.10;99.90;;;;;;5053674;28;20072;-74
2023/04/17 09:30:42;;;;;;;18.98;14.10;;;13.20;99.90;;;;;;5052897;28;20060;-74
2023/04/17 09:33:10;;;;;;;20.27;14.15;;;13.30;99.90;;;;;;5053535;28;20049;-72
2023/04/17 09:35:37;;;;;;;17.58;14.05;;;13.50;99.90;;;;;;5054155;28;20045;-75
2023/04/17 09:38:04;;;;;;;19.40;14.10;;;13.60;99.90;;;;;;5053608;28;20053;-73
2023/04/17 09:40:40;;;;;;;17.63;13.52;;;13.70;99.90;;;;;;5054129;28;20053;-74
2023/04/17 09:43:08;;;;;;;17.55;13.43;;;13.90;99.90;;;;;;5053395;28;20385;-74
2023/04/17 09:45:37;;;;;;;17.30;12.43;;;14.10;99.90;;;;;;5052532;28;20041;-76
2023/04/17 09:48:05;;;;;;;15.60;11.65;;;14.20;99.90;;;;;;5053835;28;20519;-73
2023/04/17 09:50:32;;;;;;;15.50;12.15;;;14.40;99.90;;;;;;5053461;28;20127;-74
2023/04/17 09:52:58;;;;;;;15.68;12.35;;;14.60;99.90;;;;;;5052268;28;20114;-73
2023/04/17 09:55:31;;;;;;;15.75;11.48;;;14.90;99.90;;;;;;5053368;28;20080;-73
2023/04/17 09:57:59;;;;;;;16.40;11.07;;;15.20;99.90;;;;;;5053326;28;20105;-74
2023/04/17 10:00:26;;;;;;;13.48;10.20;;;15.50;99.90;;;;;;5053257;28;20049;-73
2023/04/17 10:02:53;;;;;;;15.77;11.00;;;15.70;99.90;;;;;;5053563;28;20127;-73
2023/04/17 10:05:25;;;;;;;13.10;11.52;;;15.70;99.90;;;;;;5053355;28;20048;-73
2023/04/17 10:07:51;;;;;;;17.63;11.07;;;15.80;99.90;;;;;;5053012;28;20115;-73
2023/04/17 10:10:33;;;;;;;15.55;10.57;;;15.90;99.90;;;;;;5052201;28;20458;-73
2023/04/17 10:13:01;;;;;;;11.98;9.77;;;16.00;99.90;;;;;;5053069;28;20118;-73
2023/04/17 10:15:28;;;;;;;13.65;10.57;;;15.90;99.90;;;;;;5054828;28;20584;-74
2023/04/17 10:17:57;;;;;;;12.70;10.48;;;16.10;99.90;;;;;;5057045;28;20041;-73
2023/04/17 10:20:23;;;;;;;13.45;9.93;;;16.20;99.90;;;;;;5057817;28;20055;-73
2023/04/17 10:22:53;;;;;;;12.23;9.30;;;16.20;99.90;;;;;;5056277;28;20456;-73
2023/04/17 10:25:28;;;;;;;10.93;8.85;;;16.40;99.90;;;;;;5057241;28;20059;-74
2023/04/17 10:27:59;;;;;;;11.00;8.67;;;16.70;99.90;;;;;;5056573;28;20531;-78
2023/04/17 10:30:51;;;;;;;11.07;8.63;;;16.90;99.90;;;;;;5057110;28;20283;-73
2023/04/17 10:33:23;;;;;;;12.77;9.68;;;17.00;99.90;;;;;;5043138;28;20053;-71
2023/04/17 10:35:50;;;;;;;11.30;7.80;;;16.80;99.90;;;;;;5057594;28;20457;-72
2023/04/17 10:38:29;;;;;;;10.50;7.88;;;16.60;99.90;;;;;;5056985;28;20088;-74
2023/04/17 10:40:54;;;;;;;12.20;8.40;;;16.50;99.90;;;;;;5056898;28;20045;-74
2023/04/17 10:43:21;;;;;;;11.07;8.27;;;16.80;99.90;;;;;;5057241;28;20167;-72
2023/04/17 10:46:10;;;;;;;9.82;8.13;;;17.30;99.90;;;;;;5057116;28;20060;-73
2023/04/17 10:48:50;;;;;;;10.02;7.72;;;17.70;99.90;;;;;;5056662;28;20044;-73
2023/04/17 10:51:22;;;;;;;10.63;8.40;;;17.80;99.90;;;;;;5056789;28;20091;-74
2023/04/17 10:54:04;;;;;;;10.23;8.35;;;17.80;99.90;;;;;;5056540;28;20041;-74
2023/04/17 10:56:47;;;;;;;9.93;7.55;;;17.90;99.90;;;;;;5056696;28;20106;-74
2023/04/17 10:59:14;;;;;;;9.65;7.88;;;17.60;99.90;;;;;;5056761;28;20049;-75
2023/04/17 11:01:46;;;;;;;10.95;8.60;;;17.30;99.90;;;;;;5056542;28;20088;-74
2023/04/17 11:04:18;;;;;;;9.30;7.82;;;16.90;99.90;;;;;;5056515;28;20045;-73
2023/04/17 11:06:44;;;;;;;10.05;8.70;;;16.50;99.90;;;;;;5057006;28;20053;-73
2023/04/17 11:09:10;;;;;;;10.07;8.20;;;16.30;99.90;;;;;;5056143;28;20048;-73
2023/04/17 11:11:41;;;;;;;9.82;8.10;;;16.10;99.90;;;;;;5054903;28;20405;-73
2023/04/17 11:14:12;;;;;;;11.10;8.82;;;15.80;99.90;;;;;;5056106;28;20053;-73
2023/04/17 11:16:40;;;;;;;11.85;8.82;;;15.60;99.90;;;;;;5055555;28;20063;-74
2023/04/17 11:19:11;;;;;;;10.73;8.45;;;15.60;99.90;;;;;;5055208;28;20053;-74
2023/04/17 11:21:57;;;;;;;10.70;8.70;;;15.60;99.90;;;;;;5056373;28;20053;-75
2023/04/17 11:24:23;;;;;;;10.00;8.32;;;16.20;99.90;;;;;;5056132;28;20048;-74
2023/04/17 11:26:49;;;;;;;10.50;8.55;;;16.80;99.90;;;;;;5056403;28;20103;-74
2023/04/17 11:29:15;;;;;;;11.10;8.68;;;17.30;99.90;;;;;;5055112;28;20081;-75
2023/04/17 11:31:42;;;;;;;10.25;8.52;;;17.50;99.90;;;;;;5055012;28;20454;-75
2023/04/17 11:34:08;;;;;;;10.18;8.35;;;17.70;99.90;;;;;;5056051;28;20484;-75
2023/04/17 11:36:34;;;;;;;10.30;8.15;;;17.80;99.90;;;;;;5055983;28;20092;-75
2023/04/17 11:39:00;;;;;;;10.77;8.60;;;17.80;99.90;;;;;;5055903;28;20045;-75
2023/04/17 11:41:38;;;;;;;9.70;8.52;;;17.50;99.90;;;;;;5055804;28;20095;-74
2023/04/17 11:44:08;;;;;;;10.60;9.40;;;17.20;99.90;;;;;;5055795;28;20045;-74
2023/04/17 11:46:35;;;;;;;11.40;9.40;;;16.80;99.90;;;;;;5055939;28;20052;-75
2023/04/17 11:49:05;;;;;;;11.20;9.23;;;16.60;99.90;;;;;;5054565;28;20045;-75
2023/04/17 11:51:31;;;;;;;12.30;9.75;;;16.60;99.90;;;;;;5056195;28;20440;-76
2023/04/17 11:53:58;;;;;;;12.20;9.43;;;16.90;99.90;;;;;;5055639;28;20398;-75
2023/04/17 11:56:28;;;;;;;12.95;9.60;;;17.40;99.90;;;;;;5055575;28;20049;-74
2023/04/17 11:58:56;;;;;;;10.55;8.85;;;17.60;99.90;;;;;;5056110;28;20041;-74
2023/04/17 12:01:24;;;;;;;10.05;8.75;;;17.90;99.90;;;;;;5055459;28;20094;-74
2023/04/17 12:03:58;;;;;;;10.35;9.05;;;18.10;99.90;;;;;;5055250;28;20091;-74
2023/04/17 12:06:34;;;;;;;10.52;9.38;;;18.10;99.90;;;;;;5055943;28;20203;-75
2023/04/17 12:09:01;;;;;;;11.48;9.20;;;18.00;99.90;;;;;;5055635;28;20414;-74
2023/04/17 12:11:31;;;;;;;9.95;8.73;;;17.90;99.90;;;;;;5055664;28;20044;-75
2023/04/17 12:13:59;;;;;;;11.05;9.10;;;17.80;99.90;;;;;;5055136;28;20064;-75
2023/04/17 12:16:25;;;;;;;11.23;9.10;;;17.60;99.90;;;;;;5053646;28;20549;-74
2023/04/17 12:18:52;;;;;;;9.77;8.68;;;17.60;99.90;;;;;;5054138;28;20536;-75
2023/04/17 12:21:22;;;;;;;9.15;8.15;;;17.80;99.90;;;;;;5054394;28;20045;-75
2023/04/17 12:23:48;;;;;;;9.77;8.68;;;18.50;99.90;;;;;;5055038;28;20071;-74
2023/04/17 12:26:15;;;;;;;10.45;9.00;;;19.00;99.90;;;;;;5053992;28;20473;-75
2023/04/17 12:28:40;;;;;;;10.35;9.23;;;19.20;99.90;;;;;;5054891;28;20171;-75
2023/04/17 12:31:06;;;;;;;11.13;9.15;;;19.60;99.90;;;;;;5054888;28;20068;-75
2023/04/17 12:33:32;;;;;;;11.40;8.98;;;19.90;99.90;;;;;;5055294;28;20124;-75
2023/04/17 12:36:02;;;;;;;9.02;8.10;;;20.10;99.90;;;;;;5054871;28;20045;-75